Time;durP1;ratioP1;P1;durP2;ratioP2;P2;SDS_P1;SDS_P2;PMS_P1;PMS_P2;Temp;Humidity;BMP_temperature;BMP_pressure;BME280_temperature;BME280_humidity;BME280_pressure;Samples;Min_cycle;Max_cycle;Signal;HPM_P1;HPM_P2
2022/11/12 00:01:21;;;;;;;33.75;13.25;;;4.20;99.90;;;;;;5047646;28;20029;-66
2022/11/12 00:03:47;;;;;;;29.80;13.50;;;4.30;99.90;;;;;;5043431;28;20536;-67
2022/11/12 00:06:12;;;;;;;29.00;13.13;;;4.30;99.90;;;;;;5037226;28;20025;-66
2022/11/12 00:08:38;;;;;;;29.50;13.55;;;4.20;99.90;;;;;;5033786;28;20041;-67
2022/11/12 00:11:04;;;;;;;30.13;13.75;;;4.20;99.90;;;;;;5038972;28;20081;-66
2022/11/12 00:13:30;;;;;;;28.88;12.98;;;4.20;99.90;;;;;;5043956;28;20135;-67
2022/11/12 00:15:56;;;;;;;27.17;12.73;;;4.20;99.90;;;;;;5036096;28;20036;-67
2022/11/12 00:18:21;;;;;;;26.10;12.50;;;4.20;99.90;;;;;;5032343;28;20036;-68
2022/11/12 00:20:47;;;;;;;24.10;11.90;;;4.10;99.90;;;;;;5025368;28;20095;-66
2022/11/12 00:23:13;;;;;;;24.50;12.50;;;4.00;99.90;;;;;;5026422;28;20069;-66
2022/11/12 00:25:41;;;;;;;22.20;11.18;;;4.00;99.90;;;;;;5028714;28;20042;-66
2022/11/12 00:28:09;;;;;;;23.58;10.82;;;4.00;99.90;;;;;;5019746;28;20056;-64
2022/11/12 00:30:39;;;;;;;22.17;10.65;;;3.90;99.90;;;;;;5027828;28;20034;-68
2022/11/12 00:33:06;;;;;;;25.77;11.90;;;3.90;99.90;;;;;;5024931;28;20137;-67
2022/11/12 00:35:32;;;;;;;26.35;11.30;;;3.90;99.90;;;;;;5054867;28;20633;-70
2022/11/12 00:37:59;;;;;;;20.55;10.45;;;3.80;99.90;;;;;;5033711;28;20055;-67
2022/11/12 00:40:25;;;;;;;25.33;11.05;;;3.80;99.90;;;;;;5046114;28;20037;-69
2022/11/12 00:42:52;;;;;;;23.70;10.73;;;3.70;99.90;;;;;;5025332;28;20091;-66
2022/11/12 00:45:21;;;;;;;23.33;11.07;;;3.70;99.90;;;;;;5032927;28;20387;-66
2022/11/12 00:47:46;;;;;;;25.20;10.90;;;3.60;99.90;;;;;;5027436;28;20025;-66
2022/11/12 00:50:14;;;;;;;27.27;11.32;;;3.60;99.90;;;;;;5037631;28;20039;-73
2022/11/12 00:52:40;;;;;;;23.98;11.20;;;3.60;99.90;;;;;;5034477;28;20037;-67
2022/11/12 00:55:06;;;;;;;22.77;11.50;;;3.70;99.90;;;;;;5047419;28;20029;-67
2022/11/12 00:57:31;;;;;;;25.70;10.90;;;3.70;99.90;;;;;;5048815;28;20477;-67
2022/11/12 00:59:57;;;;;;;20.38;10.55;;;3.60;99.90;;;;;;5033942;28;20033;-65
2022/11/12 01:02:23;;;;;;;22.77;11.00;;;3.60;99.90;;;;;;5028132;28;20108;-65
2022/11/12 01:04:48;;;;;;;20.73;10.80;;;3.60;99.90;;;;;;5011882;28;20033;-66
2022/11/12 01:07:14;;;;;;;24.58;12.20;;;3.60;99.90;;;;;;5017057;28;20045;-72
2022/11/12 01:09:40;;;;;;;28.02;12.93;;;3.60;99.90;;;;;;5024077;28;20033;-66
2022/11/12 01:12:06;;;;;;;24.75;11.57;;;3.60;99.90;;;;;;5029594;28;20481;-66
2022/11/12 01:14:32;;;;;;;23.67;11.35;;;3.60;99.90;;;;;;5045394;28;20251;-67
2022/11/12 01:16:57;;;;;;;27.42;11.73;;;3.60;99.90;;;;;;5045686;28;20056;-65
2022/11/12 01:19:23;;;;;;;25.15;11.20;;;3.60;99.90;;;;;;5046847;28;20359;-67
2022/11/12 01:21:49;;;;;;;22.27;10.80;;;3.60;99.90;;;;;;5038532;28;20049;-64
2022/11/12 01:24:14;;;;;;;25.30;11.35;;;3.60;99.90;;;;;;5040526;28;20478;-72
2022/11/12 01:26:40;;;;;;;23.55;10.85;;;3.50;99.90;;;;;;5033283;28;20037;-69
2022/11/12 01:29:06;;;;;;;23.13;10.93;;;3.50;99.90;;;;;;5039388;28;20653;-67
2022/11/12 01:31:37;;;;;;;23.67;11.40;;;3.40;99.90;;;;;;5017655;28;20045;-67
2022/11/12 01:34:05;;;;;;;23.42;10.77;;;3.30;99.90;;;;;;5024567;28;20489;-65
2022/11/12 01:36:37;;;;;;;22.73;10.40;;;3.20;99.90;;;;;;5040089;28;20090;-66
2022/11/12 01:39:05;;;;;;;22.25;10.70;;;3.10;99.90;;;;;;5034057;28;20116;-66
2022/11/12 01:41:33;;;;;;;22.15;10.88;;;3.10;99.90;;;;;;5019845;28;20474;-67
2022/11/12 01:44:07;;;;;;;22.73;11.25;;;3.10;99.90;;;;;;5028281;28;20513;-71
2022/11/12 01:46:38;;;;;;;24.58;10.68;;;3.00;99.90;;;;;;5008412;28;20071;-68
2022/11/12 01:49:08;;;;;;;21.13;10.32;;;3.00;99.90;;;;;;5009499;28;20041;-66
2022/11/12 01:51:37;;;;;;;19.92;9.70;;;2.90;99.90;;;;;;5027552;28;20037;-67
2022/11/12 01:54:08;;;;;;;18.88;8.95;;;2.90;99.90;;;;;;5029090;28;20040;-68
2022/11/12 01:56:34;;;;;;;20.52;10.25;;;2.90;99.90;;;;;;5026226;28;20041;-70
2022/11/12 01:59:06;;;;;;;20.10;9.43;;;2.90;99.90;;;;;;5026267;28;20038;-66
2022/11/12 02:01:33;;;;;;;19.83;9.68;;;2.80;99.90;;;;;;5050445;28;20474;-66
2022/11/12 02:03:59;;;;;;;19.63;9.68;;;2.70;99.90;;;;;;5026912;28;20124;-68
2022/11/12 02:06:25;;;;;;;22.35;9.60;;;2.70;99.90;;;;;;5042922;28;20156;-68
2022/11/12 02:08:51;;;;;;;19.48;9.82;;;2.70;99.90;;;;;;5042308;28;20068;-67
2022/11/12 02:11:19;;;;;;;21.85;10.50;;;2.80;99.90;;;;;;5024962;28;20029;-72
2022/11/12 02:13:56;;;;;;;22.13;10.38;;;2.80;99.90;;;;;;5041349;28;20128;-68
2022/11/12 02:16:42;;;;;;;23.88;10.13;;;2.80;99.90;;;;;;5027029;28;20044;-67
2022/11/12 02:19:14;;;;;;;19.95;9.82;;;2.80;99.90;;;;;;5037252;28;20118;-68
2022/11/12 02:21:40;;;;;;;20.30;9.70;;;2.80;99.90;;;;;;5040001;28;20034;-66
2022/11/12 02:24:11;;;;;;;21.75;9.10;;;2.70;99.90;;;;;;5030843;28;20500;-68
2022/11/12 02:26:41;;;;;;;21.55;9.65;;;2.70;99.90;;;;;;5031955;28;20689;-67
2022/11/12 02:29:07;;;;;;;18.27;9.07;;;2.70;99.90;;;;;;5039485;28;20038;-67
2022/11/12 02:31:32;;;;;;;18.50;8.88;;;2.70;99.90;;;;;;5040752;28;20040;-67
2022/11/12 02:33:58;;;;;;;20.45;9.35;;;2.70;99.90;;;;;;5037569;28;20026;-67
2022/11/12 02:36:25;;;;;;;21.02;9.50;;;2.60;99.90;;;;;;5044849;28;20074;-65
2022/11/12 02:38:50;;;;;;;19.95;9.05;;;2.60;99.90;;;;;;5040534;28;20033;-68
2022/11/12 02:41:16;;;;;;;21.98;9.95;;;2.60;99.90;;;;;;5046903;28;20029;-72
2022/11/12 02:43:43;;;;;;;18.77;9.40;;;2.50;99.90;;;;;;5028944;28;20103;-67
2022/11/12 02:46:09;;;;;;;19.25;9.25;;;2.50;99.90;;;;;;5028359;28;20470;-66
2022/11/12 02:48:34;;;;;;;23.45;11.05;;;2.60;99.90;;;;;;5042930;28;20039;-66
2022/11/12 02:51:00;;;;;;;21.73;10.57;;;2.60;99.90;;;;;;5035889;28;20040;-69
2022/11/12 02:53:26;;;;;;;20.08;9.40;;;2.50;99.90;;;;;;5029014;28;20029;-66
2022/11/12 02:55:51;;;;;;;23.13;9.52;;;2.40;99.90;;;;;;5027003;28;20041;-69
2022/11/12 02:58:17;;;;;;;18.48;9.02;;;2.30;99.90;;;;;;5036354;28;20424;-72
2022/11/12 03:00:43;;;;;;;36.95;10.25;;;2.30;99.90;;;;;;5046500;28;20025;-65
2022/11/12 03:03:08;;;;;;;19.75;9.35;;;2.30;99.90;;;;;;5041912;28;20029;-67
2022/11/12 03:05:34;;;;;;;21.95;9.63;;;2.30;99.90;;;;;;5047903;28;20029;-66
2022/11/12 03:08:05;;;;;;;21.42;9.70;;;2.30;99.90;;;;;;5035513;28;20127;-66
2022/11/12 03:10:32;;;;;;;17.27;8.85;;;2.40;99.90;;;;;;5029810;28;20034;-68
2022/11/12 03:13:02;;;;;;;18.02;8.90;;;2.30;99.90;;;;;;5036446;28;20029;-67
2022/11/12 03:15:28;;;;;;;18.58;9.20;;;2.30;99.90;;;;;;5032556;28;20587;-66
2022/11/12 03:17:56;;;;;;;18.13;9.23;;;2.30;99.90;;;;;;5037715;28;20079;-66
2022/11/12 03:20:21;;;;;;;18.25;8.60;;;2.20;99.90;;;;;;5031116;28;20040;-72
2022/11/12 03:22:58;;;;;;;18.73;9.00;;;2.30;99.90;;;;;;5039720;28;20405;-67
2022/11/12 03:25:25;;;;;;;18.40;8.48;;;2.30;99.90;;;;;;5034252;28;20383;-67
2022/11/12 03:28:03;;;;;;;22.63;8.68;;;2.30;99.90;;;;;;5042120;28;20171;-67
2022/11/12 03:30:32;;;;;;;18.88;9.35;;;2.40;99.90;;;;;;5048759;28;20029;-67
2022/11/12 03:32:58;;;;;;;25.05;9.57;;;2.50;99.90;;;;;;5039865;28;20448;-65
2022/11/12 03:35:25;;;;;;;20.80;9.52;;;2.50;99.90;;;;;;5046532;28;20021;-72
2022/11/12 03:37:51;;;;;;;20.85;9.55;;;2.50;99.90;;;;;;5046046;28;20496;-67
2022/11/12 03:40:17;;;;;;;21.48;10.23;;;2.60;99.90;;;;;;5030898;28;20056;-67
2022/11/12 03:42:45;;;;;;;20.63;9.70;;;2.50;99.90;;;;;;5030244;28;20025;-67
2022/11/12 03:45:11;;;;;;;23.20;10.55;;;2.50;99.90;;;;;;5029559;28;20386;-67
2022/11/12 03:47:41;;;;;;;20.92;10.10;;;2.50;99.90;;;;;;5010585;28;20045;-69
2022/11/12 03:50:09;;;;;;;17.98;8.80;;;2.50;99.90;;;;;;5027657;28;20092;-67
2022/11/12 03:52:35;;;;;;;24.17;9.55;;;2.60;99.90;;;;;;5028629;28;20459;-66
2022/11/12 03:55:00;;;;;;;29.83;9.07;;;2.60;99.90;;;;;;5030895;28;20418;-67
2022/11/12 03:57:26;;;;;;;18.88;9.60;;;2.70;99.90;;;;;;5046568;28;20036;-67
2022/11/12 03:59:51;;;;;;;19.60;8.60;;;2.70;99.90;;;;;;5048637;28;20469;-67
2022/11/12 04:02:17;;;;;;;23.33;9.32;;;2.80;99.90;;;;;;5049021;28;20029;-65
2022/11/12 04:10:11;;;;;;;21.13;8.80;;;2.40;99.90;;;;;;5038670;28;20044;-67
2022/11/12 04:15:20;;;;;;;18.73;9.00;;;2.30;99.90;;;;;;5027627;28;20040;-68
2022/11/12 04:23:14;;;;;;;18.50;9.20;;;2.50;99.90;;;;;;5027587;28;20102;-67
2022/11/12 04:28:24;;;;;;;18.65;9.10;;;2.60;99.90;;;;;;5042734;28;20076;-72
2022/11/12 04:30:50;;;;;;;20.48;10.02;;;2.70;99.90;;;;;;5049885;28;20468;-67
2022/11/12 04:33:15;;;;;;;22.77;10.38;;;2.70;99.90;;;;;;5039630;28;20040;-68
2022/11/12 04:35:41;;;;;;;18.75;9.80;;;2.80;99.90;;;;;;5046093;28;20202;-65
2022/11/12 04:38:06;;;;;;;20.85;9.82;;;2.80;99.90;;;;;;5041725;28;20076;-69
2022/11/12 04:46:03;;;;;;;20.70;8.98;;;3.00;99.90;;;;;;5029600;28;20032;-67
2022/11/12 04:48:29;;;;;;;17.77;9.10;;;3.00;99.90;;;;;;5040010;28;20087;-68
2022/11/12 04:50:58;;;;;;;20.27;9.10;;;3.00;99.90;;;;;;5030801;28;20083;-68
2022/11/12 04:53:24;;;;;;;21.52;10.00;;;3.10;99.90;;;;;;5028552;28;20037;-67
2022/11/12 04:55:52;;;;;;;21.95;9.95;;;3.00;99.90;;;;;;5029763;28;20473;-67
2022/11/12 04:58:18;;;;;;;21.90;10.23;;;2.80;99.90;;;;;;5036841;28;20145;-67
2022/11/12 05:00:43;;;;;;;22.38;10.13;;;2.70;99.90;;;;;;5025019;28;20029;-67
2022/11/12 05:03:10;;;;;;;18.15;8.85;;;2.70;99.90;;;;;;5023611;28;20035;-66
2022/11/12 05:05:35;;;;;;;20.48;9.82;;;2.80;99.90;;;;;;5043085;28;20512;-69
2022/11/12 05:08:01;;;;;;;22.83;9.57;;;2.70;99.90;;;;;;5041785;28;20041;-67
2022/11/12 05:10:27;;;;;;;24.02;9.48;;;2.70;99.90;;;;;;5041356;28;20064;-70
2022/11/12 05:12:52;;;;;;;20.77;10.13;;;2.70;99.90;;;;;;5017903;28;20454;-67
2022/11/12 05:15:18;;;;;;;19.73;9.05;;;2.70;99.90;;;;;;5030581;28;20390;-70
2022/11/12 05:17:44;;;;;;;20.02;8.82;;;2.80;99.90;;;;;;5046069;28;20032;-67
2022/11/12 05:20:13;;;;;;;18.40;8.90;;;2.80;99.90;;;;;;5039410;28;20035;-67
2022/11/12 05:22:39;;;;;;;17.95;8.38;;;2.80;99.90;;;;;;5027785;28;20053;-66
2022/11/12 05:25:05;;;;;;;17.63;8.40;;;2.90;99.90;;;;;;5043499;28;20041;-67
2022/11/12 05:27:31;;;;;;;17.10;7.88;;;2.90;99.90;;;;;;5027275;28;20046;-67
2022/11/12 05:29:57;;;;;;;19.33;8.55;;;3.00;99.90;;;;;;5015263;28;20072;-67
2022/11/12 05:32:22;;;;;;;17.73;8.80;;;2.90;99.90;;;;;;5032337;28;20029;-67
2022/11/12 05:34:48;;;;;;;18.55;8.07;;;2.90;99.90;;;;;;5027389;28;20033;-67
2022/11/12 05:37:14;;;;;;;16.08;7.55;;;2.90;99.90;;;;;;5034416;28;20102;-67
2022/11/12 05:39:39;;;;;;;18.80;8.48;;;2.90;99.90;;;;;;5030265;28;20080;-68
2022/11/12 05:42:05;;;;;;;15.48;7.85;;;2.90;99.90;;;;;;5038637;28;20091;-66
2022/11/12 05:44:32;;;;;;;15.68;8.05;;;2.90;99.90;;;;;;5030171;28;20034;-72
2022/11/12 05:46:58;;;;;;;16.70;8.13;;;2.90;99.90;;;;;;5030850;28;20041;-67
2022/11/12 05:49:23;;;;;;;17.67;7.88;;;2.90;99.90;;;;;;5033156;28;20385;-68
2022/11/12 05:51:50;;;;;;;15.73;8.10;;;3.00;99.90;;;;;;5034647;28;20152;-66
2022/11/12 05:54:18;;;;;;;16.15;7.32;;;3.00;99.90;;;;;;5042948;28;20037;-67
2022/11/12 05:56:46;;;;;;;15.18;7.22;;;3.10;99.90;;;;;;5035078;28;20115;-65
2022/11/12 05:59:13;;;;;;;16.83;7.88;;;3.10;99.90;;;;;;5028771;28;20033;-65
2022/11/12 06:01:42;;;;;;;13.93;7.18;;;3.10;99.90;;;;;;5022238;28;20041;-67
2022/11/12 06:04:12;;;;;;;14.20;7.03;;;3.20;99.90;;;;;;5027315;28;20030;-68
2022/11/12 06:06:39;;;;;;;14.45;7.30;;;3.20;99.90;;;;;;5030748;28;20053;-67
2022/11/12 06:09:05;;;;;;;13.27;6.70;;;3.30;99.90;;;;;;5046731;28;20045;-70
2022/11/12 06:11:31;;;;;;;12.60;6.28;;;3.40;99.90;;;;;;5043941;28;20029;-72
2022/11/12 06:13:57;;;;;;;13.15;6.90;;;3.60;99.90;;;;;;5030921;28;20045;-67
2022/11/12 06:16:23;;;;;;;22.67;10.77;;;3.60;99.90;;;;;;5032373;28;20033;-66
2022/11/12 06:18:48;;;;;;;21.73;10.45;;;3.50;99.90;;;;;;5025396;28;20039;-67
2022/11/12 06:21:23;;;;;;;24.52;10.68;;;3.20;99.90;;;;;;5020213;28;20041;-67
2022/11/12 06:23:52;;;;;;;22.55;10.32;;;3.00;99.90;;;;;;5045363;28;20064;-65
2022/11/12 06:26:19;;;;;;;23.15;10.52;;;2.80;99.90;;;;;;5041641;28;20048;-65
2022/11/12 06:28:45;;;;;;;24.65;11.20;;;2.70;99.90;;;;;;5042508;28;20031;-66
2022/11/12 06:31:11;;;;;;;21.60;10.32;;;2.60;99.90;;;;;;5047106;28;20025;-69
2022/11/12 06:33:37;;;;;;;22.88;10.57;;;2.60;99.90;;;;;;5033789;28;20024;-67
2022/11/12 06:36:04;;;;;;;23.05;11.38;;;2.60;99.90;;;;;;5026314;28;20444;-65
2022/11/12 06:38:31;;;;;;;22.77;10.77;;;2.60;99.90;;;;;;5040626;28;20056;-71
2022/11/12 06:40:57;;;;;;;20.40;10.75;;;2.70;99.90;;;;;;5031652;28;20370;-67
2022/11/12 06:43:24;;;;;;;22.38;10.13;;;2.60;99.90;;;;;;5033754;28;20039;-66
2022/11/12 06:45:50;;;;;;;21.48;10.43;;;2.70;99.90;;;;;;5031658;28;20534;-66
2022/11/12 06:48:15;;;;;;;22.33;10.48;;;2.60;99.90;;;;;;5035870;28;20044;-67
2022/11/12 06:50:41;;;;;;;20.38;10.05;;;2.50;99.90;;;;;;5037233;28;20033;-65
2022/11/12 06:53:07;;;;;;;18.60;9.15;;;2.50;99.90;;;;;;5033541;28;20056;-68
2022/11/12 06:55:32;;;;;;;17.13;9.07;;;2.60;99.90;;;;;;5036572;28;20049;-73
2022/11/12 06:57:58;;;;;;;20.05;9.65;;;2.60;99.90;;;;;;5040074;28;20036;-67
2022/11/12 07:00:24;;;;;;;18.65;9.18;;;2.60;99.90;;;;;;5027645;28;20502;-66
2022/11/12 07:02:49;;;;;;;19.73;9.35;;;2.70;99.90;;;;;;5031939;28;20036;-66
2022/11/12 07:05:15;;;;;;;18.73;9.70;;;2.80;99.90;;;;;;5029535;28;20041;-68
2022/11/12 07:07:40;;;;;;;23.15;10.77;;;2.90;99.90;;;;;;5022780;28;20038;-67
2022/11/12 07:10:07;;;;;;;19.00;9.40;;;3.20;99.90;;;;;;5031459;28;20025;-66
2022/11/12 07:12:32;;;;;;;14.82;7.78;;;3.40;99.90;;;;;;5031653;28;20219;-72
2022/11/12 07:14:58;;;;;;;15.82;8.70;;;3.60;99.90;;;;;;5031387;28;20130;-66
2022/11/12 07:17:24;;;;;;;15.02;8.10;;;3.80;99.90;;;;;;5030519;28;20033;-66
2022/11/12 07:19:49;;;;;;;20.17;9.27;;;3.90;99.90;;;;;;5031002;28;20029;-67
2022/11/12 07:22:15;;;;;;;19.15;9.82;;;4.00;99.90;;;;;;5030474;28;20057;-68
2022/11/12 07:24:40;;;;;;;17.08;8.88;;;4.10;99.90;;;;;;5029999;28;20048;-67
2022/11/12 07:27:06;;;;;;;18.00;9.15;;;4.20;99.90;;;;;;5034698;28;20048;-67
2022/11/12 07:29:31;;;;;;;15.93;8.52;;;4.30;99.90;;;;;;5033101;28;20136;-70
2022/11/12 07:31:57;;;;;;;18.38;8.82;;;4.40;99.90;;;;;;5030268;28;20029;-66
2022/11/12 07:34:23;;;;;;;18.50;9.10;;;4.40;99.90;;;;;;5039533;28;20477;-65
2022/11/12 07:36:50;;;;;;;18.83;8.80;;;4.50;99.90;;;;;;5049505;28;20068;-67
2022/11/12 07:39:16;;;;;;;19.23;8.77;;;4.60;99.90;;;;;;5048589;28;20036;-67
2022/11/12 07:41:42;;;;;;;14.07;7.95;;;4.70;99.90;;;;;;5050320;28;20162;-67
2022/11/12 07:44:08;;;;;;;15.65;8.25;;;4.70;99.90;;;;;;5042251;28;20136;-67
2022/11/12 07:46:33;;;;;;;15.10;7.72;;;4.80;99.90;;;;;;5029874;28;20045;-67
2022/11/12 07:48:59;;;;;;;16.10;9.25;;;4.80;99.90;;;;;;5041224;28;20447;-66
2022/11/12 07:51:27;;;;;;;39.15;16.77;;;4.90;99.90;;;;;;5034542;28;20548;-68
2022/11/12 07:53:55;;;;;;;34.28;15.23;;;4.90;99.90;;;;;;5034566;28;20470;-66
2022/11/12 07:56:23;;;;;;;24.73;11.68;;;5.00;99.90;;;;;;5030530;28;20398;-67
2022/11/12 07:58:50;;;;;;;19.80;10.32;;;5.10;99.90;;;;;;5029456;28;20087;-66
2022/11/12 08:01:34;;;;;;;20.10;9.02;;;5.10;99.90;;;;;;5030223;28;20030;-67
2022/11/12 08:04:01;;;;;;;21.45;9.50;;;5.10;99.90;;;;;;5041041;28;20024;-67
2022/11/12 08:06:28;;;;;;;17.50;7.85;;;5.20;99.90;;;;;;5028287;28;20041;-69
2022/11/12 08:08:56;;;;;;;15.60;8.00;;;5.30;99.90;;;;;;5027977;28;20104;-69
2022/11/12 08:11:22;;;;;;;14.63;7.90;;;5.30;99.90;;;;;;5049304;28;20064;-65
2022/11/12 08:13:50;;;;;;;25.23;9.65;;;5.50;99.90;;;;;;5035476;28;20053;-66
2022/11/12 08:16:16;;;;;;;14.90;7.55;;;5.60;99.90;;;;;;5029599;28;20047;-67
2022/11/12 08:18:42;;;;;;;16.38;7.57;;;5.70;99.90;;;;;;5036752;28;20032;-66
2022/11/12 08:21:10;;;;;;;19.85;8.98;;;5.70;99.90;;;;;;5047756;28;20037;-67
2022/11/12 08:23:39;;;;;;;12.77;7.53;;;5.80;99.90;;;;;;5034483;28;20056;-70
2022/11/12 08:26:09;;;;;;;19.58;9.02;;;5.90;99.90;;;;;;5029738;28;20068;-67
2022/11/12 08:28:36;;;;;;;28.73;11.35;;;6.00;99.90;;;;;;5026148;28;20048;-70
2022/11/12 08:31:22;;;;;;;20.38;9.65;;;6.10;99.90;;;;;;5037242;28;20040;-69
2022/11/12 08:33:48;;;;;;;28.73;12.45;;;6.20;99.90;;;;;;5029050;28;20025;-69
2022/11/12 08:36:15;;;;;;;24.42;11.00;;;6.40;99.90;;;;;;5030566;28;20045;-69
2022/11/12 08:38:41;;;;;;;22.98;11.65;;;6.50;99.90;;;;;;5029708;28;20034;-75
2022/11/12 08:41:10;;;;;;;17.85;9.07;;;6.60;99.90;;;;;;5029513;28;20397;-71
2022/11/12 08:43:37;;;;;;;15.23;8.35;;;6.70;99.90;;;;;;5026107;28;20033;-72
2022/11/12 08:46:03;;;;;;;21.83;9.43;;;6.80;99.90;;;;;;5018045;28;20084;-70
2022/11/12 08:48:30;;;;;;;15.82;8.13;;;6.90;99.90;;;;;;5029762;28;20029;-70
2022/11/12 08:50:57;;;;;;;14.07;8.65;;;7.00;99.90;;;;;;5027609;28;20335;-69
2022/11/12 08:53:24;;;;;;;17.80;8.65;;;7.20;99.90;;;;;;5028846;28;20037;-70
2022/11/12 08:55:54;;;;;;;13.65;7.97;;;7.30;99.90;;;;;;5028906;28;20035;-71
2022/11/12 08:58:20;;;;;;;16.45;7.97;;;7.40;99.90;;;;;;5029644;28;20131;-69
2022/11/12 09:00:45;;;;;;;18.92;8.32;;;7.50;99.90;;;;;;5027967;28;20037;-71
2022/11/12 09:03:14;;;;;;;13.95;7.78;;;7.60;99.90;;;;;;5029674;28;20809;-70
2022/11/12 09:05:40;;;;;;;15.55;7.47;;;7.70;99.90;;;;;;5029549;28;20033;-75
2022/11/12 09:08:09;;;;;;;12.40;7.25;;;7.90;99.90;;;;;;5028258;28;20054;-71
2022/11/12 09:10:35;;;;;;;13.23;7.25;;;8.00;99.90;;;;;;5029507;28;20585;-71
2022/11/12 09:13:02;;;;;;;14.02;7.75;;;8.10;99.90;;;;;;5027463;28;20174;-71
2022/11/12 09:15:28;;;;;;;14.02;7.60;;;8.20;99.90;;;;;;5026066;28;20025;-70
2022/11/12 09:17:59;;;;;;;13.43;6.97;;;8.30;99.90;;;;;;5028471;28;20029;-70
2022/11/12 09:20:25;;;;;;;18.55;7.70;;;8.40;99.90;;;;;;5028928;28;20075;-70
2022/11/12 09:22:51;;;;;;;13.15;7.18;;;8.50;99.90;;;;;;5039660;28;20053;-70
2022/11/12 09:25:19;;;;;;;13.80;6.72;;;8.60;99.90;;;;;;5026970;28;20041;-70
2022/11/12 09:27:45;;;;;;;13.93;7.03;;;8.70;99.90;;;;;;5028407;28;20038;-71
2022/11/12 09:30:11;;;;;;;12.95;7.55;;;8.80;99.90;;;;;;5037594;28;20083;-71
2022/11/12 09:32:37;;;;;;;15.60;7.13;;;8.90;99.90;;;;;;5030215;28;20497;-69
2022/11/12 09:35:02;;;;;;;14.82;7.43;;;8.90;99.90;;;;;;5026089;28;20628;-69
2022/11/12 09:37:28;;;;;;;11.95;6.93;;;8.90;99.90;;;;;;5029181;28;20069;-72
2022/11/12 09:39:54;;;;;;;14.55;7.60;;;8.90;99.90;;;;;;5033847;28;20036;-70
2022/11/12 09:42:21;;;;;;;15.23;7.32;;;8.90;99.90;;;;;;5029023;28;20026;-70
2022/11/12 09:45:10;;;;;;;12.52;7.18;;;9.00;99.90;;;;;;5029769;28;20041;-73
2022/11/12 09:47:44;;;;;;;13.07;7.07;;;9.10;99.90;;;;;;5025557;28;20093;-71
2022/11/12 09:50:35;;;;;;;15.57;7.95;;;9.20;99.90;;;;;;5032564;28;20115;-71
2022/11/12 09:53:13;;;;;;;13.30;7.40;;;9.30;99.90;;;;;;5040322;28;20096;-70
2022/11/12 09:55:42;;;;;;;11.82;6.70;;;9.40;99.90;;;;;;5016284;28;21745;-71
2022/11/12 09:58:12;;;;;;;11.95;6.90;;;9.60;99.90;;;;;;5026169;28;20087;-70
2022/11/12 10:00:44;;;;;;;11.83;6.63;;;9.80;99.90;;;;;;5034497;28;20034;-71
2022/11/12 10:03:29;;;;;;;10.60;6.55;;;10.00;99.90;;;;;;5029909;28;20367;-71
2022/11/12 10:05:59;;;;;;;10.73;5.95;;;10.10;99.90;;;;;;5028224;28;20039;-68
2022/11/12 10:08:37;;;;;;;11.63;6.47;;;10.30;99.90;;;;;;5048887;28;20037;-69
2022/11/12 10:11:14;;;;;;;13.23;6.40;;;10.30;99.90;;;;;;5046676;28;20037;-67
2022/11/12 10:14:07;;;;;;;13.00;6.45;;;10.30;99.90;;;;;;5048749;28;20032;-68
2022/11/12 10:16:44;;;;;;;13.18;6.55;;;10.30;99.90;;;;;;5027184;28;20037;-68
2022/11/12 10:19:48;;;;;;;12.13;6.47;;;10.50;99.90;;;;;;5028586;28;20025;-68
2022/11/12 10:22:22;;;;;;;14.85;5.90;;;10.50;99.90;;;;;;5028023;28;20050;-69
2022/11/12 10:24:48;;;;;;;11.32;5.90;;;10.60;99.90;;;;;;5008365;28;20034;-75
2022/11/12 10:27:25;;;;;;;11.32;5.45;;;10.50;99.90;;;;;;5009116;28;20042;-67
2022/11/12 10:30:04;;;;;;;9.32;5.15;;;10.40;99.90;;;;;;5008180;28;20037;-68
2022/11/12 10:32:29;;;;;;;10.25;5.22;;;10.30;99.90;;;;;;5008901;28;20029;-67
2022/11/12 10:34:55;;;;;;;9.88;5.03;;;10.30;99.90;;;;;;5011217;28;20030;-66
2022/11/12 10:37:32;;;;;;;8.68;4.97;;;10.40;99.90;;;;;;5028519;28;20109;-68
2022/11/12 10:39:58;;;;;;;7.85;4.72;;;10.40;99.90;;;;;;5026387;28;20026;-67
2022/11/12 10:42:24;;;;;;;10.10;5.32;;;10.50;99.90;;;;;;5028230;28;20032;-67
2022/11/12 10:44:50;;;;;;;10.90;5.13;;;10.50;99.90;;;;;;5027837;28;20462;-71
2022/11/12 10:47:26;;;;;;;9.88;4.82;;;10.50;99.90;;;;;;5028505;28;20037;-68
2022/11/12 10:50:14;;;;;;;7.18;4.63;;;10.60;99.90;;;;;;5026916;28;20592;-67
2022/11/12 10:53:11;;;;;;;8.60;4.38;;;10.50;99.90;;;;;;5028072;28;20048;-68
2022/11/12 10:55:56;;;;;;;8.80;4.53;;;10.50;99.90;;;;;;5028369;28;20034;-67
2022/11/12 10:58:21;;;;;;;9.68;4.82;;;10.50;99.90;;;;;;5028543;28;20726;-67
2022/11/12 11:01:06;;;;;;;8.60;4.35;;;10.60;99.90;;;;;;5027818;28;20030;-73
2022/11/12 11:03:35;;;;;;;8.30;3.95;;;10.60;99.90;;;;;;5028266;28;20133;-68
2022/11/12 11:06:06;;;;;;;10.25;4.75;;;10.60;99.90;;;;;;5026445;28;20108;-70
2022/11/12 11:08:52;;;;;;;11.00;5.30;;;10.70;99.90;;;;;;5027942;28;20540;-70
2022/11/12 11:11:23;;;;;;;13.40;4.40;;;10.70;99.90;;;;;;5028722;28;20474;-67
2022/11/12 11:13:51;;;;;;;7.75;4.30;;;10.80;99.90;;;;;;5028026;28;20040;-76
2022/11/12 11:16:39;;;;;;;9.48;4.50;;;10.90;99.90;;;;;;5028259;28;20021;-69
2022/11/12 11:19:08;;;;;;;9.70;5.03;;;11.00;99.90;;;;;;5025922;28;20056;-71
2022/11/12 11:21:46;;;;;;;9.15;5.18;;;11.20;99.90;;;;;;5027886;28;20037;-70
2022/11/12 11:24:19;;;;;;;9.77;4.57;;;11.50;99.90;;;;;;5028310;28;20100;-71
2022/11/12 11:27:03;;;;;;;7.70;4.43;;;11.60;99.90;;;;;;5031774;28;20042;-69
2022/11/12 11:29:49;;;;;;;7.00;4.10;;;11.70;99.90;;;;;;5031367;28;20033;-68
2022/11/12 11:32:30;;;;;;;5.88;3.83;;;11.80;99.90;;;;;;5019736;28;20034;-69
2022/11/12 11:34:58;;;;;;;7.45;3.83;;;11.90;99.90;;;;;;5029988;28;20037;-71
2022/11/12 11:37:35;;;;;;;7.10;3.70;;;12.00;99.90;;;;;;5031360;28;20044;-69
2022/11/12 11:40:17;;;;;;;7.35;4.07;;;12.10;99.90;;;;;;5030799;28;20079;-69
2022/11/12 11:43:14;;;;;;;7.57;4.20;;;12.10;99.90;;;;;;5031478;28;20060;-67
2022/11/12 11:46:04;;;;;;;7.07;4.20;;;12.10;99.90;;;;;;5030905;28;20048;-70
2022/11/12 11:48:46;;;;;;;7.07;4.35;;;12.10;99.90;;;;;;5030497;28;20544;-68
2022/11/12 11:51:18;;;;;;;8.25;4.15;;;12.00;99.90;;;;;;5030750;28;20195;-73
2022/11/12 11:54:21;;;;;;;7.60;3.97;;;12.00;99.90;;;;;;5031265;28;20072;-68
2022/11/12 11:56:48;;;;;;;6.32;3.92;;;12.00;99.90;;;;;;5030886;28;20029;-70
2022/11/12 11:59:32;;;;;;;8.05;4.15;;;11.90;99.90;;;;;;5027895;28;20036;-68
2022/11/12 12:02:13;;;;;;;5.32;3.55;;;11.90;99.90;;;;;;5028579;28;20036;-68
2022/11/12 12:04:45;;;;;;;7.45;4.03;;;11.90;99.90;;;;;;5031079;28;20061;-69
2022/11/12 12:07:36;;;;;;;7.10;4.03;;;11.90;99.90;;;;;;5029989;28;20032;-67
2022/11/12 12:10:10;;;;;;;;;;;11.90;99.90;;;;;;5030766;28;20061;-72
2022/11/12 12:12:41;;;;;;;5.63;3.42;;;11.90;99.90;;;;;;5030670;28;20357;-69
2022/11/12 12:15:26;;;;;;;6.65;3.60;;;11.90;99.90;;;;;;5028976;28;20505;-70
2022/11/12 12:18:02;;;;;;;6.97;3.58;;;12.00;99.90;;;;;;5025803;28;20045;-76
2022/11/12 12:20:46;;;;;;;6.32;3.70;;;11.90;99.90;;;;;;5010972;28;20049;-69
2022/11/12 12:23:34;;;;;;;6.30;3.70;;;12.00;99.90;;;;;;5027667;28;20046;-68
2022/11/12 12:26:06;;;;;;;6.28;3.85;;;11.90;99.90;;;;;;5034615;28;20090;-71
2022/11/12 12:28:46;;;;;;;6.38;3.95;;;11.90;99.90;;;;;;5029765;28;20083;-69
2022/11/12 12:31:19;;;;;;;7.18;4.07;;;11.90;99.90;;;;;;5029874;28;20060;-68
2022/11/12 12:34:02;;;;;;;13.02;5.95;;;12.00;99.90;;;;;;5030543;28;20099;-70
2022/11/12 12:36:36;;;;;;;16.52;7.15;;;12.10;99.90;;;;;;5029483;28;20470;-69
2022/11/12 12:39:17;;;;;;;12.57;6.30;;;12.20;99.90;;;;;;5029757;28;20036;-67
2022/11/12 12:41:57;;;;;;;13.15;5.55;;;12.30;99.90;;;;;;5030468;28;20064;-69
2022/11/12 12:44:58;;;;;;;10.30;4.72;;;12.20;99.90;;;;;;5017915;28;20061;-68
2022/11/12 12:47:12;;;;;;;7.03;3.90;;;12.20;99.90;;;;;;5009245;28;20045;-68
2022/11/12 12:49:40;;;;;;;18.58;4.70;;;12.20;99.90;;;;;;5010545;28;20125;-69
2022/11/12 12:52:05;;;;;;;10.98;4.32;;;12.20;99.90;;;;;;5018545;28;20316;-70
2022/11/12 12:54:34;;;;;;;19.10;4.93;;;12.20;99.90;;;;;;5030236;28;20052;-67
2022/11/12 12:57:02;;;;;;;9.90;4.65;;;12.20;99.90;;;;;;5029125;28;20037;-69
2022/11/12 12:59:27;;;;;;;9.82;4.20;;;12.10;99.90;;;;;;5029098;28;20057;-69
2022/11/12 13:02:01;;;;;;;7.15;3.78;;;12.00;99.90;;;;;;5030143;28;20033;-76
2022/11/12 13:04:48;;;;;;;5.70;3.42;;;12.10;99.90;;;;;;5029957;28;20040;-71
2022/11/12 13:07:14;;;;;;;10.82;3.10;;;12.00;99.90;;;;;;5029171;28;20092;-66
2022/11/12 13:09:40;;;;;;;7.07;3.50;;;12.00;99.90;;;;;;5028688;28;20029;-69
2022/11/12 13:14:34;;;;;;;11.73;3.38;;;12.00;99.90;;;;;;5028800;28;20061;-68
2022/11/12 13:17:05;;;;;;;5.70;3.17;;;12.00;99.90;;;;;;5028995;28;20528;-70
2022/11/12 13:19:33;;;;;;;5.97;3.38;;;11.90;99.90;;;;;;5029043;28;20033;-68